Time;durP1;ratioP1;P1;durP2;ratioP2;P2;SDS_P1;SDS_P2;PMS_P1;PMS_P2;Temp;Humidity;BMP_temperature;BMP_pressure;BME280_temperature;BME280_humidity;BME280_pressure;Samples;Min_cycle;Max_cycle;Signal;HPM_P1;HPM_P2
2021/10/16 00:00:54;;;;;;;4.88;1.30;;;;;16.00;100577.00;;;;5108733;28;20035;-76
2021/10/16 00:03:27;;;;;;;5.43;1.40;;;;;15.90;100583.00;;;;5108633;28;20050;-75
2021/10/16 00:05:58;;;;;;;6.55;1.38;;;;;15.90;100598.00;;;;5111742;27;20530;-78
2021/10/16 00:08:27;;;;;;;4.03;1.40;;;;;15.90;100593.00;;;;5110671;27;20058;-76
2021/10/16 00:10:58;;;;;;;9.20;1.48;;;;;15.90;100596.00;;;;5109676;28;20066;-76
2021/10/16 00:13:27;;;;;;;4.63;1.52;;;;;15.90;100619.00;;;;5109488;28;20498;-78
2021/10/16 00:15:57;;;;;;;7.30;1.50;;;;;15.90;100619.00;;;;5109062;28;20101;-77
2021/10/16 00:18:26;;;;;;;20.33;2.53;;;;;15.90;100615.00;;;;5109140;28;20055;-76
2021/10/16 00:20:56;;;;;;;9.43;2.00;;;;;15.90;100617.00;;;;5108625;28;20047;-78
2021/10/16 00:23:27;;;;;;;8.23;1.92;;;;;15.90;100614.00;;;;5109037;28;20043;-77
2021/10/16 00:25:57;;;;;;;15.25;2.40;;;;;15.90;100609.00;;;;5108970;28;20042;-79
2021/10/16 00:28:26;;;;;;;8.50;1.83;;;;;15.80;100621.00;;;;5108381;28;20039;-79
2021/10/16 00:30:56;;;;;;;6.75;1.85;;;;;15.90;100623.00;;;;5108685;28;20092;-77
2021/10/16 00:33:26;;;;;;;11.38;2.30;;;;;15.90;100617.00;;;;5107248;28;20047;-77
2021/10/16 00:35:56;;;;;;;9.50;1.92;;;;;15.90;100627.00;;;;5108740;28;20073;-77
2021/10/16 00:38:26;;;;;;;9.95;1.77;;;;;15.90;100622.00;;;;5107597;28;20113;-76
2021/10/16 00:40:55;;;;;;;9.35;1.88;;;;;15.90;100632.00;;;;5107008;27;20089;-78
2021/10/16 00:43:25;;;;;;;11.90;1.83;;;;;15.90;100634.00;;;;5106888;28;20054;-77
2021/10/16 00:45:54;;;;;;;8.32;1.88;;;;;15.90;100655.00;;;;5108103;28;20054;-77
2021/10/16 00:48:27;;;;;;;6.88;2.00;;;;;15.90;100624.00;;;;5108360;28;20039;-76
2021/10/16 00:50:57;;;;;;;11.82;1.60;;;;;15.90;100650.00;;;;5108113;28;20039;-76
2021/10/16 00:53:26;;;;;;;14.82;1.88;;;;;15.80;100626.00;;;;5107730;28;20172;-77
2021/10/16 00:55:56;;;;;;;5.63;1.60;;;;;15.80;100653.00;;;;5108451;28;20051;-78
2021/10/16 00:58:27;;;;;;;2.95;1.30;;;;;15.80;100665.00;;;;5106129;28;20051;-75
2021/10/16 01:00:58;;;;;;;2.95;1.08;;;;;15.80;100655.00;;;;5089614;28;20051;-75
2021/10/16 01:03:28;;;;;;;5.22;1.42;;;;;15.90;100669.00;;;;5108289;28;20071;-76
2021/10/16 01:05:59;;;;;;;4.15;1.35;;;;;15.90;100657.00;;;;5107122;28;20135;-76
2021/10/16 01:08:29;;;;;;;2.97;1.27;;;;;15.90;100626.00;;;;5108528;28;20048;-76
2021/10/16 01:10:59;;;;;;;5.10;1.55;;;;;15.90;100651.00;;;;5107724;28;20108;-76
2021/10/16 01:13:29;;;;;;;6.70;1.30;;;;;15.90;100652.00;;;;5108371;28;20065;-77
2021/10/16 01:16:02;;;;;;;4.50;1.13;;;;;15.80;100670.00;;;;5106978;28;20052;-77
2021/10/16 01:18:32;;;;;;;4.78;1.23;;;;;15.80;100660.00;;;;5106205;28;20471;-79
2021/10/16 01:21:08;;;;;;;4.87;1.30;;;;;15.80;100667.00;;;;5105627;28;20620;-75
2021/10/16 01:23:38;;;;;;;5.47;1.27;;;;;15.80;100676.00;;;;5107283;28;20139;-76
2021/10/16 01:26:09;;;;;;;11.43;1.50;;;;;15.80;100653.00;;;;5107892;28;20414;-77
2021/10/16 01:28:42;;;;;;;2.40;1.10;;;;;15.80;100658.00;;;;5106284;28;20050;-77
2021/10/16 01:31:12;;;;;;;3.38;0.98;;;;;15.80;100669.00;;;;5105515;28;20142;-77
2021/10/16 01:33:43;;;;;;;4.65;1.17;;;;;15.80;100665.00;;;;5106772;28;20073;-77
2021/10/16 01:36:13;;;;;;;9.02;1.38;;;;;15.80;100691.00;;;;5107306;28;20564;-76
2021/10/16 01:38:42;;;;;;;5.60;1.13;;;;;15.80;100696.00;;;;5105466;28;20055;-76
2021/10/16 01:41:12;;;;;;;5.15;1.33;;;;;15.80;100698.00;;;;5105986;28;20417;-77
2021/10/16 01:43:44;;;;;;;5.72;1.40;;;;;15.80;100697.00;;;;5105229;28;20130;-77
2021/10/16 01:46:14;;;;;;;8.32;1.70;;;;;15.80;100716.00;;;;5105588;28;20048;-77
2021/10/16 01:48:43;;;;;;;5.10;1.48;;;;;15.80;100711.00;;;;5105375;28;20059;-78
2021/10/16 01:51:17;;;;;;;10.70;1.98;;;;;15.70;100732.00;;;;5090721;28;20047;-77
2021/10/16 01:53:48;;;;;;;5.70;1.30;;;;;15.70;100701.00;;;;5111184;28;20416;-77
2021/10/16 01:56:18;;;;;;;5.82;1.27;;;;;15.70;100723.00;;;;5110717;28;20036;-77
2021/10/16 01:58:49;;;;;;;15.77;1.92;;;;;15.70;100709.00;;;;5108611;28;20146;-76
2021/10/16 02:01:44;;;;;;;10.88;1.67;;;;;15.70;100724.00;;;;5104138;28;20047;-77
2021/10/16 02:04:23;;;;;;;4.07;1.10;;;;;15.80;100717.00;;;;5108765;28;20047;-78
2021/10/16 02:06:52;;;;;;;5.63;1.50;;;;;15.70;100732.00;;;;5109455;28;20594;-77
2021/10/16 02:09:22;;;;;;;5.20;1.35;;;;;15.70;100745.00;;;;5109544;28;20383;-78
2021/10/16 02:11:52;;;;;;;12.65;1.80;;;;;15.70;100748.00;;;;5109205;28;20069;-80
2021/10/16 02:14:21;;;;;;;6.88;1.90;;;;;15.60;100745.00;;;;5109225;28;20047;-76
2021/10/16 02:16:55;;;;;;;12.02;2.05;;;;;15.60;100752.00;;;;5109007;28;20055;-77
2021/10/16 02:19:25;;;;;;;8.82;2.30;;;;;15.80;100767.00;;;;5108941;28;20048;-77
2021/10/16 02:21:56;;;;;;;;;;;;;15.70;100770.00;;;;5110518;28;20043;-76
2021/10/16 02:24:31;;;;;;;13.45;2.10;;;;;15.80;100757.00;;;;5109609;28;20339;-76
2021/10/16 02:27:01;;;;;;;13.52;1.80;;;;;15.80;100755.00;;;;5109542;28;20048;-77
2021/10/16 02:29:31;;;;;;;7.38;1.90;;;;;15.80;100763.00;;;;5110221;28;20051;-76
2021/10/16 02:32:07;;;;;;;6.82;1.70;;;;;15.80;100768.00;;;;5109304;28;20451;-76
2021/10/16 02:34:38;;;;;;;6.78;1.50;;;;;15.80;100768.00;;;;5108474;28;20052;-76
2021/10/16 02:37:18;;;;;;;8.52;1.50;;;;;15.80;100764.00;;;;5109241;28;20097;-77
2021/10/16 02:39:48;;;;;;;5.68;1.25;;;;;15.80;100778.00;;;;5109259;28;20498;-76
2021/10/16 02:42:18;;;;;;;9.15;1.50;;;;;15.80;100780.00;;;;5108774;28;20130;-77
2021/10/16 02:44:50;;;;;;;9.07;1.80;;;;;15.80;100761.00;;;;5108352;28;20060;-76
2021/10/16 02:47:19;;;;;;;9.13;1.90;;;;;15.80;100772.00;;;;5108706;28;20051;-77
2021/10/16 02:49:49;;;;;;;6.90;1.45;;;;;15.70;100781.00;;;;5109611;28;20154;-76
2021/10/16 02:52:18;;;;;;;9.52;2.15;;;;;15.80;100771.00;;;;5108679;28;20039;-76
2021/10/16 02:54:50;;;;;;;8.27;2.10;;;;;15.70;100776.00;;;;5109027;28;20555;-76
2021/10/16 02:57:27;;;;;;;8.93;1.88;;;;;15.70;100777.00;;;;5108909;28;20050;-77
2021/10/16 02:59:59;;;;;;;8.68;1.70;;;;;15.70;100791.00;;;;5109231;28;20498;-77
2021/10/16 03:02:30;;;;;;;4.30;1.35;;;;;15.70;100803.00;;;;5091732;28;20222;-77
2021/10/16 03:05:00;;;;;;;7.07;1.80;;;;;15.70;100791.00;;;;5107941;28;20051;-78
2021/10/16 03:07:34;;;;;;;5.65;1.75;;;;;15.60;100799.00;;;;5108211;28;20043;-79
2021/10/16 03:10:05;;;;;;;9.73;2.00;;;;;15.70;100788.00;;;;5107576;28;20067;-75
2021/10/16 03:12:34;;;;;;;8.65;1.60;;;;;15.60;100790.00;;;;5108710;28;20074;-78
2021/10/16 03:15:04;;;;;;;8.90;1.85;;;;;15.60;100796.00;;;;5107614;28;20050;-77
2021/10/16 03:17:36;;;;;;;5.47;1.88;;;;;15.60;100802.00;;;;5107982;28;20043;-77
2021/10/16 03:20:08;;;;;;;9.60;1.90;;;;;15.50;100798.00;;;;5107671;28;20040;-78
2021/10/16 03:22:39;;;;;;;7.60;2.60;;;;;15.50;100786.00;;;;5108448;28;20050;-77
2021/10/16 03:25:09;;;;;;;9.27;1.92;;;;;15.40;100764.00;;;;5108597;28;20039;-78
2021/10/16 03:27:39;;;;;;;7.95;1.98;;;;;15.40;100798.00;;;;5106893;28;20078;-77
2021/10/16 03:30:09;;;;;;;11.52;2.20;;;;;15.30;100792.00;;;;5109374;28;20444;-77
2021/10/16 03:32:38;;;;;;;11.02;2.47;;;;;15.30;100794.00;;;;5107669;28;20510;-77
2021/10/16 03:35:08;;;;;;;14.05;2.55;;;;;15.40;100786.00;;;;5107187;28;20078;-77
2021/10/16 03:37:38;;;;;;;14.55;3.42;;;;;15.30;100786.00;;;;5107626;28;20048;-77
2021/10/16 03:40:08;;;;;;;12.73;2.35;;;;;15.30;100791.00;;;;5108536;28;20127;-79
2021/10/16 03:42:38;;;;;;;13.98;3.38;;;;;15.20;100785.00;;;;5107151;28;20053;-77
2021/10/16 03:45:14;;;;;;;13.18;2.63;;;;;15.20;100788.00;;;;5090932;28;20395;-77
2021/10/16 03:47:44;;;;;;;10.10;2.50;;;;;15.20;100799.00;;;;5107808;28;20138;-76
2021/10/16 03:50:14;;;;;;;15.48;3.28;;;;;15.20;100803.00;;;;5107876;28;20050;-78
2021/10/16 03:52:44;;;;;;;18.13;3.13;;;;;15.20;100764.00;;;;5107146;28;20055;-77
2021/10/16 03:55:13;;;;;;;18.15;3.00;;;;;15.10;100777.00;;;;5106864;28;20094;-79
2021/10/16 03:57:43;;;;;;;12.30;2.85;;;;;15.10;100763.00;;;;5106656;28;20491;-79
2021/10/16 04:00:20;;;;;;;15.38;3.60;;;;;15.10;100775.00;;;;5107120;28;20153;-78
2021/10/16 04:03:03;;;;;;;18.83;3.83;;;;;15.10;100776.00;;;;5108414;28;20073;-81
2021/10/16 04:05:35;;;;;;;15.55;3.25;;;;;15.10;100770.00;;;;5090265;28;20142;-77
2021/10/16 04:08:08;;;;;;;11.73;3.03;;;;;15.10;100780.00;;;;5106201;28;20051;-80
2021/10/16 04:10:38;;;;;;;13.35;3.30;;;;;15.00;100778.00;;;;5107342;28;20532;-79
2021/10/16 04:13:08;;;;;;;13.57;3.03;;;;;15.00;100786.00;;;;5106268;28;20058;-82
2021/10/16 04:15:43;;;;;;;10.90;3.15;;;;;14.90;100758.00;;;;5106848;28;20067;-82
2021/10/16 04:18:13;;;;;;;17.83;2.90;;;;;14.90;100774.00;;;;5107802;28;20051;-79
2021/10/16 04:20:43;;;;;;;15.65;3.28;;;;;14.90;100798.00;;;;5106153;28;20048;-80
2021/10/16 04:23:12;;;;;;;15.85;3.42;;;;;14.90;100784.00;;;;5108332;28;20550;-80
2021/10/16 04:25:43;;;;;;;12.27;3.10;;;;;14.90;100790.00;;;;5090111;28;20138;-77
2021/10/16 04:28:13;;;;;;;18.65;4.03;;;;;14.90;100783.00;;;;5106239;28;20055;-77
2021/10/16 04:31:11;;;;;;;22.08;3.75;;;;;15.00;100785.00;;;;5098753;28;20514;-77
2021/10/16 04:33:41;;;;;;;17.73;3.38;;;;;14.90;100752.00;;;;5107730;28;20134;-80
2021/10/16 04:36:11;;;;;;;30.98;4.03;;;;;15.00;100776.00;;;;5108491;28;20382;-77
2021/10/16 04:38:45;;;;;;;21.13;3.55;;;;;14.90;100749.00;;;;5108013;28;20104;-81
2021/10/16 04:41:16;;;;;;;23.15;3.38;;;;;14.90;100769.00;;;;5106707;28;20044;-80
2021/10/16 04:43:45;;;;;;;12.30;3.53;;;;;14.90;100771.00;;;;5106238;28;20615;-77
2021/10/16 04:46:15;;;;;;;15.90;3.13;;;;;14.90;100757.00;;;;5106158;28;20092;-77
2021/10/16 04:48:54;;;;;;;12.68;2.90;;;;;14.80;100739.00;;;;5106129;28;20668;-78
2021/10/16 04:51:24;;;;;;;16.17;3.70;;;;;14.90;100762.00;;;;5105736;28;20047;-77
2021/10/16 04:53:54;;;;;;;31.88;4.10;;;;;14.90;100761.00;;;;5105623;28;20530;-75
2021/10/16 04:56:24;;;;;;;30.75;3.90;;;;;15.00;100755.00;;;;5106950;28;20070;-76
2021/10/16 04:58:54;;;;;;;30.85;3.83;;;;;15.00;100758.00;;;;5106314;28;20055;-77
2021/10/16 05:01:23;;;;;;;19.38;3.30;;;;;14.90;100750.00;;;;5107476;28;20048;-76
2021/10/16 05:03:53;;;;;;;19.52;3.72;;;;;15.00;100752.00;;;;5107372;28;20051;-77
2021/10/16 05:06:22;;;;;;;20.05;3.67;;;;;15.00;100726.00;;;;5107219;28;20503;-75
2021/10/16 05:08:54;;;;;;;16.60;3.28;;;;;14.90;100717.00;;;;5106359;28;20130;-76
2021/10/16 05:11:24;;;;;;;32.55;3.65;;;;;15.00;100724.00;;;;5089592;28;20048;-77
2021/10/16 05:13:54;;;;;;;18.40;3.33;;;;;15.00;100718.00;;;;5105721;28;20476;-76
2021/10/16 05:16:24;;;;;;;21.13;4.18;;;;;15.00;100742.00;;;;5109245;28;20089;-78
2021/10/16 05:18:53;;;;;;;18.67;3.20;;;;;14.90;100719.00;;;;5107735;28;20420;-76
2021/10/16 05:21:23;;;;;;;31.63;3.65;;;;;15.00;100736.00;;;;5106173;28;20097;-76
2021/10/16 05:23:53;;;;;;;23.90;4.03;;;;;15.00;100729.00;;;;5106176;28;20091;-76
2021/10/16 05:26:24;;;;;;;20.10;3.85;;;;;15.10;100752.00;;;;5110627;28;20434;-76
2021/10/16 05:28:57;;;;;;;10.77;3.37;;;;;15.00;100749.00;;;;5093083;28;20079;-76
2021/10/16 05:31:26;;;;;;;16.05;3.40;;;;;15.10;100727.00;;;;5111361;28;20292;-76
2021/10/16 05:33:56;;;;;;;21.20;3.22;;;;;15.00;100729.00;;;;5109838;28;20059;-77
2021/10/16 05:36:26;;;;;;;19.52;3.50;;;;;15.10;100716.00;;;;5112836;28;20049;-75
2021/10/16 05:38:56;;;;;;;24.27;4.25;;;;;15.10;100733.00;;;;5114760;28;20048;-76
2021/10/16 05:41:26;;;;;;;13.50;3.22;;;;;15.10;100723.00;;;;5110194;28;20105;-76
2021/10/16 05:43:55;;;;;;;20.27;3.00;;;;;15.10;100711.00;;;;5109669;28;20452;-76
2021/10/16 05:46:25;;;;;;;18.58;3.17;;;;;15.10;100719.00;;;;5109876;28;20502;-77
2021/10/16 05:48:58;;;;;;;17.23;3.20;;;;;15.10;100714.00;;;;5094895;28;20583;-76
2021/10/16 05:51:28;;;;;;;18.85;3.22;;;;;15.00;100692.00;;;;5109378;28;20044;-76
2021/10/16 05:53:58;;;;;;;16.17;3.40;;;;;15.10;100708.00;;;;5109078;28;20502;-77
2021/10/16 06:07:18;;;;;;;32.90;4.60;;;;;15.20;100707.00;;;;5124817;27;20475;-79
2021/10/16 06:09:50;;;;;;;18.35;3.47;;;;;15.20;100707.00;;;;5123375;28;21102;-79
2021/10/16 06:12:20;;;;;;;21.55;3.13;;;;;15.20;100688.00;;;;5123137;28;20459;-78
2021/10/16 06:14:49;;;;;;;22.08;4.10;;;;;15.20;100710.00;;;;5123207;28;20062;-78
2021/10/16 06:17:29;;;;;;;24.15;3.17;;;;;15.10;100708.00;;;;5123595;28;20040;-79
2021/10/16 06:19:59;;;;;;;24.05;3.30;;;;;15.20;100713.00;;;;5123457;27;20104;-79
2021/10/16 06:22:30;;;;;;;20.35;4.32;;;;;15.10;100690.00;;;;5123078;27;20473;-79
2021/10/16 06:24:59;;;;;;;19.42;2.92;;;;;15.10;100698.00;;;;5123056;28;20421;-79
2021/10/16 06:27:29;;;;;;;14.13;2.70;;;;;15.20;100716.00;;;;5123294;28;20517;-79
2021/10/16 06:29:59;;;;;;;20.73;3.05;;;;;15.20;100695.00;;;;5124430;27;20039;-77
2021/10/16 06:32:29;;;;;;;11.20;2.60;;;;;15.10;100682.00;;;;5123376;27;20159;-78
2021/10/16 06:35:01;;;;;;;14.32;3.30;;;;;15.20;100676.00;;;;5122544;28;20547;-77
2021/10/16 06:37:31;;;;;;;33.17;3.38;;;;;15.10;100687.00;;;;5123209;27;20754;-80
2021/10/16 06:40:02;;;;;;;18.75;3.95;;;;;15.10;100668.00;;;;5123271;27;20126;-80
2021/10/16 06:42:38;;;;;;;19.83;3.80;;;;;15.20;100657.00;;;;5122223;28;20047;-78
2021/10/16 06:45:20;;;;;;;12.70;2.88;;;;;15.10;100685.00;;;;5124342;27;20055;-79
2021/10/16 06:48:27;;;;;;;18.90;3.25;;;;;15.20;100674.00;;;;5080689;28;20048;-78
2021/10/16 06:51:53;;;;;;;45.70;4.90;;;;;15.20;100695.00;;;;5123623;27;20661;-78
2021/10/16 06:54:24;;;;;;;20.80;3.65;;;;;15.20;100682.00;;;;5122171;27;20039;-81
2021/10/16 06:56:53;;;;;;;31.33;4.25;;;;;15.20;100675.00;;;;5104734;28;20048;-81
2021/10/16 06:59:25;;;;;;;20.40;3.22;;;;;15.20;100685.00;;;;5101902;28;20047;-77
2021/10/16 07:01:55;;;;;;;29.67;3.70;;;;;15.20;100700.00;;;;5102585;28;20579;-78
2021/10/16 07:04:35;;;;;;;17.45;3.10;;;;;15.20;100692.00;;;;5101432;28;20541;-79
2021/10/16 07:07:05;;;;;;;24.05;3.58;;;;;15.20;100686.00;;;;5094509;28;20430;-79
2021/10/16 07:09:40;;;;;;;23.08;3.40;;;;;15.20;100695.00;;;;5087932;28;20093;-79
2021/10/16 07:12:10;;;;;;;18.55;3.10;;;;;15.20;100677.00;;;;5090086;28;20040;-79
2021/10/16 07:14:40;;;;;;;21.80;3.08;;;;;15.20;100685.00;;;;5089154;28;20052;-81
2021/10/16 07:17:13;;;;;;;21.02;3.63;;;;;15.20;100694.00;;;;5087383;28;20076;-79
2021/10/16 07:19:43;;;;;;;19.20;2.95;;;;;15.20;100689.00;;;;5089382;28;20039;-81
2021/10/16 07:22:12;;;;;;;25.67;3.35;;;;;15.10;100691.00;;;;5089418;28;20039;-80
2021/10/16 07:24:42;;;;;;;18.75;3.40;;;;;15.20;100698.00;;;;5092813;28;20036;-80
2021/10/16 07:27:11;;;;;;;27.85;4.00;;;;;15.20;100694.00;;;;5095716;28;20445;-80
2021/10/16 07:29:41;;;;;;;21.50;3.45;;;;;15.10;100689.00;;;;5089287;28;20036;-80
2021/10/16 07:32:11;;;;;;;20.90;3.65;;;;;15.10;100703.00;;;;5089633;28;20068;-80
2021/10/16 07:34:41;;;;;;;30.83;3.40;;;;;15.20;100691.00;;;;5089192;28;20051;-80
2021/10/16 07:37:10;;;;;;;20.73;3.08;;;;;15.20;100723.00;;;;5089011;28;20059;-80
2021/10/16 07:39:40;;;;;;;33.28;3.45;;;;;15.10;100725.00;;;;5088731;28;20131;-79
2021/10/16 07:42:10;;;;;;;22.13;3.20;;;;;15.20;100743.00;;;;5087218;28;20505;-79
2021/10/16 07:44:39;;;;;;;23.05;3.50;;;;;15.30;100728.00;;;;5088698;28;20040;-79
2021/10/16 07:47:09;;;;;;;35.83;3.85;;;;;15.30;100748.00;;;;5088996;28;20382;-79
2021/10/16 07:49:38;;;;;;;33.58;4.00;;;;;15.30;100764.00;;;;5088557;28;20083;-81
2021/10/16 07:52:08;;;;;;;34.58;3.78;;;;;15.30;100778.00;;;;5076681;28;20422;-78
2021/10/16 07:54:37;;;;;;;23.48;4.20;;;;;15.30;100769.00;;;;5068508;28;20056;-79
2021/10/16 07:57:06;;;;;;;23.73;4.05;;;;;15.30;100788.00;;;;5069007;28;20045;-78
2021/10/16 07:59:36;;;;;;;29.38;3.47;;;;;15.30;100775.00;;;;5068738;28;20055;-79
2021/10/16 08:02:05;;;;;;;31.13;3.97;;;;;15.40;100815.00;;;;5068665;28;20663;-78
2021/10/16 08:04:35;;;;;;;21.85;3.55;;;;;15.30;100812.00;;;;5068090;28;20086;-79
2021/10/16 08:07:06;;;;;;;44.75;4.20;;;;;15.30;100821.00;;;;5067294;28;20063;-78
2021/10/16 08:09:36;;;;;;;26.35;3.72;;;;;15.30;100813.00;;;;5066865;28;20068;-81
2021/10/16 08:12:06;;;;;;;22.00;3.38;;;;;15.30;100813.00;;;;5068326;28;20135;-79
2021/10/16 08:14:35;;;;;;;22.95;3.70;;;;;15.20;100806.00;;;;5067451;28;20140;-80
2021/10/16 08:17:05;;;;;;;20.85;4.35;;;;;15.30;100820.00;;;;5067922;28;20036;-80
2021/10/16 08:19:35;;;;;;;25.20;4.10;;;;;15.30;100810.00;;;;5065638;28;20110;-80
2021/10/16 08:22:04;;;;;;;25.48;4.18;;;;;15.30;100807.00;;;;5067980;28;20364;-80
2021/10/16 08:24:34;;;;;;;15.20;3.30;;;;;15.20;100826.00;;;;5066854;28;20507;-80
2021/10/16 08:27:03;;;;;;;21.35;3.17;;;;;15.20;100813.00;;;;5068398;28;20048;-80
2021/10/16 08:29:32;;;;;;;20.08;3.25;;;;;15.20;100826.00;;;;5068611;28;20499;-80
2021/10/16 08:32:02;;;;;;;27.70;3.50;;;;;15.20;100821.00;;;;5067117;28;20048;-80
2021/10/16 08:34:33;;;;;;;19.98;2.83;;;;;15.30;100827.00;;;;5068590;28;20066;-80
2021/10/16 08:37:02;;;;;;;28.90;3.53;;;;;15.30;100823.00;;;;5067533;28;20052;-80
2021/10/16 08:39:32;;;;;;;17.48;2.90;;;;;15.30;100817.00;;;;5067754;28;20044;-79
2021/10/16 08:42:01;;;;;;;18.42;2.42;;;;;15.30;100834.00;;;;5068164;28;20051;-79
2021/10/16 08:44:30;;;;;;;11.23;2.10;;;;;15.20;100824.00;;;;5067298;28;20053;-82
2021/10/16 08:47:00;;;;;;;7.88;1.95;;;;;15.20;100809.00;;;;5067070;28;20071;-80
2021/10/16 08:49:34;;;;;;;11.38;1.92;;;;;15.20;100825.00;;;;5067435;28;20055;-81
2021/10/16 08:52:04;;;;;;;11.55;2.30;;;;;15.10;100829.00;;;;5067793;28;20049;-80
2021/10/16 08:54:36;;;;;;;10.02;1.85;;;;;15.20;100847.00;;;;5067589;28;20052;-79
2021/10/16 08:57:06;;;;;;;12.77;2.00;;;;;15.10;100836.00;;;;5066236;28;20428;-79
2021/10/16 08:59:36;;;;;;;11.18;2.08;;;;;15.10;100818.00;;;;5065962;28;20098;-78
2021/10/16 09:02:08;;;;;;;15.00;1.90;;;;;15.10;100843.00;;;;5067175;28;20110;-77
2021/10/16 09:04:38;;;;;;;17.48;2.35;;;;;15.10;100864.00;;;;5067932;28;20082;-78
2021/10/16 09:07:24;;;;;;;16.88;2.20;;;;;15.20;100854.00;;;;5067276;28;20052;-78
2021/10/16 09:09:54;;;;;;;19.17;2.25;;;;;15.20;100864.00;;;;5067309;28;20052;-78
2021/10/16 09:12:23;;;;;;;16.98;2.53;;;;;15.20;100865.00;;;;5067201;28;20048;-78
2021/10/16 09:14:53;;;;;;;20.02;2.40;;;;;15.30;100870.00;;;;5065661;28;20050;-78
2021/10/16 09:17:22;;;;;;;20.73;2.38;;;;;15.30;100872.00;;;;5066808;28;20041;-78
2021/10/16 09:19:53;;;;;;;18.98;2.53;;;;;15.30;100879.00;;;;5066577;28;20040;-78
2021/10/16 09:22:23;;;;;;;13.55;2.65;;;;;15.30;100886.00;;;;5067543;28;20151;-78
2021/10/16 09:24:52;;;;;;;19.67;2.28;;;;;15.40;100897.00;;;;5067376;28;20502;-78
2021/10/16 09:27:24;;;;;;;21.77;2.70;;;;;15.40;100886.00;;;;5066943;28;20044;-78
2021/10/16 09:30:05;;;;;;;21.17;2.85;;;;;15.50;100887.00;;;;5067641;28;20523;-78
2021/10/16 09:32:37;;;;;;;34.95;3.22;;;;;15.50;100901.00;;;;5066736;28;20127;-79
2021/10/16 09:35:12;;;;;;;18.60;2.40;;;;;15.50;100903.00;;;;5065513;28;20040;-79
2021/10/16 09:37:53;;;;;;;8.90;1.67;;;;;15.50;100851.00;;;;5064758;28;20078;-81
2021/10/16 09:40:43;;;;;;;11.67;2.50;;;;;15.60;100894.00;;;;5066702;28;20047;-84
2021/10/16 09:43:25;;;;;;;7.95;1.88;;;;;15.60;100904.00;;;;5064974;28;20291;-81
2021/10/16 09:46:16;;;;;;;8.75;2.17;;;;;15.60;100909.00;;;;5065514;28;20037;-80
2021/10/16 09:48:46;;;;;;;7.43;2.20;;;;;15.70;100902.00;;;;5066824;28;20677;-82
2021/10/16 09:51:22;;;;;;;15.75;2.15;;;;;15.70;100912.00;;;;5066880;28;20098;-79
2021/10/16 09:54:07;;;;;;;8.30;1.60;;;;;15.90;100907.00;;;;5067264;28;20045;-78
2021/10/16 09:56:37;;;;;;;11.93;1.90;;;;;16.00;100917.00;;;;5066359;28;20052;-78
2021/10/16 09:59:08;;;;;;;8.02;1.75;;;;;16.10;100916.00;;;;5064999;28;20072;-79
2021/10/16 10:01:38;;;;;;;16.77;1.80;;;;;16.10;100917.00;;;;5065191;28;20529;-79
2021/10/16 10:04:10;;;;;;;11.70;1.83;;;;;16.20;100919.00;;;;5065567;28;20049;-78
2021/10/16 10:06:41;;;;;;;10.00;1.80;;;;;16.20;100917.00;;;;5065268;28;20139;-78
2021/10/16 10:09:10;;;;;;;12.05;2.22;;;;;16.20;100940.00;;;;5067569;28;20128;-79
2021/10/16 10:11:45;;;;;;;13.60;1.85;;;;;16.10;100928.00;;;;5069469;28;20037;-78
2021/10/16 10:14:18;;;;;;;9.60;1.67;;;;;16.00;100947.00;;;;5067112;28;20040;-78
2021/10/16 10:17:00;;;;;;;11.50;2.15;;;;;16.10;100949.00;;;;5066682;28;20056;-78
2021/10/16 10:19:31;;;;;;;7.40;3.33;;;;;16.10;100948.00;;;;5066959;28;20056;-79
2021/10/16 10:22:01;;;;;;;6.70;2.20;;;;;16.20;100947.00;;;;5066482;28;20070;-79
2021/10/16 10:24:42;;;;;;;4.13;2.30;;;;;16.20;100946.00;;;;5064760;28;20053;-79
2021/10/16 10:27:14;;;;;;;17.00;3.10;;;;;16.30;100947.00;;;;5065078;28;20052;-78
2021/10/16 10:29:47;;;;;;;17.65;2.15;;;;;16.60;100945.00;;;;5066705;28;20060;-78
2021/10/16 10:32:26;;;;;;;12.90;2.20;;;;;16.80;100929.00;;;;5065770;28;20509;-78
2021/10/16 10:34:58;;;;;;;16.95;2.40;;;;;16.90;100953.00;;;;5066237;28;20768;-78
2021/10/16 10:37:31;;;;;;;16.38;1.90;;;;;17.10;100932.00;;;;5066011;28;20048;-78
2021/10/16 10:40:00;;;;;;;8.90;1.88;;;;;17.20;100940.00;;;;5066123;28;20411;-81
2021/10/16 10:42:33;;;;;;;12.35;2.30;;;;;17.00;100936.00;;;;5068295;28;20054;-78
2021/10/16 10:45:03;;;;;;;6.53;1.65;;;;;17.00;100937.00;;;;5070099;28;20530;-78
2021/10/16 10:47:36;;;;;;;8.95;2.03;;;;;16.90;100962.00;;;;5069617;28;20152;-78
2021/10/16 10:50:08;;;;;;;7.88;1.70;;;;;16.70;100973.00;;;;5070162;28;20050;-79
2021/10/16 10:53:03;;;;;;;12.43;1.98;;;;;16.60;100966.00;;;;5069805;28;20499;-80
2021/10/16 10:55:53;;;;;;;10.52;2.00;;;;;16.50;100967.00;;;;5069850;28;20045;-79
2021/10/16 10:58:44;;;;;;;15.98;2.10;;;;;16.40;100963.00;;;;5070379;28;20123;-79
2021/10/16 11:01:43;;;;;;;14.02;1.98;;;;;16.40;100994.00;;;;5069339;28;20043;-79
2021/10/16 11:04:38;;;;;;;9.25;2.03;;;;;16.50;100993.00;;;;5069857;28;20095;-79
2021/10/16 11:07:11;;;;;;;16.40;2.75;;;;;16.50;100986.00;;;;5068739;28;20136;-79
2021/10/16 11:09:42;;;;;;;8.82;1.70;;;;;16.50;101011.00;;;;5069710;28;20384;-81
2021/10/16 11:12:14;;;;;;;13.95;1.98;;;;;16.40;101002.00;;;;5067668;28;20047;-79
2021/10/16 11:14:44;;;;;;;10.20;1.90;;;;;16.30;101013.00;;;;5069259;28;20075;-81
2021/10/16 11:17:15;;;;;;;8.55;2.08;;;;;16.30;101020.00;;;;5069395;28;20052;-79
2021/10/16 11:19:56;;;;;;;14.13;2.22;;;;;16.40;101023.00;;;;5067858;28;20044;-79
2021/10/16 11:22:48;;;;;;;9.27;1.90;;;;;16.60;101022.00;;;;5069199;28;20128;-79
2021/10/16 11:25:18;;;;;;;;;;;;;16.80;101032.00;;;;5069535;28;20068;-80
2021/10/16 11:28:03;;;;;;;8.52;1.80;;;;;16.80;101036.00;;;;5069571;28;20335;-77
2021/10/16 11:30:39;;;;;;;10.18;2.13;;;;;16.70;101050.00;;;;5069230;28;20040;-79
2021/10/16 11:33:13;;;;;;;9.55;2.45;;;;;16.40;101048.00;;;;5069668;28;20044;-79
2021/10/16 11:35:46;;;;;;;9.98;2.22;;;;;16.40;101048.00;;;;5068622;28;20049;-80
2021/10/16 11:38:20;;;;;;;7.63;2.33;;;;;16.40;101053.00;;;;5069100;28;20407;-79
2021/10/16 11:40:51;;;;;;;13.55;2.83;;;;;16.30;101054.00;;;;5068444;28;20109;-80
2021/10/16 11:43:24;;;;;;;;;;;;;16.50;101052.00;;;;5069550;28;20459;-79
2021/10/16 11:45:56;;;;;;;11.70;2.28;;;;;16.50;101039.00;;;;5068931;28;19924;-79
2021/10/16 11:48:27;;;;;;;15.23;2.53;;;;;16.70;101060.00;;;;5069007;28;20052;-78
2021/10/16 11:51:03;;;;;;;11.05;2.17;;;;;16.80;101044.00;;;;5068431;28;20380;-79
2021/10/16 11:53:35;;;;;;;12.10;2.22;;;;;16.80;101052.00;;;;5068429;28;20044;-79
2021/10/16 11:56:10;;;;;;;9.43;1.67;;;;;16.80;101040.00;;;;5068459;28;20044;-78
2021/10/16 11:58:43;;;;;;;10.32;1.85;;;;;16.70;101063.00;;;;5067302;28;20110;-78
2021/10/16 12:01:13;;;;;;;8.98;1.88;;;;;16.70;101059.00;;;;5068714;28;20502;-78
2021/10/16 12:03:45;;;;;;;8.23;1.52;;;;;16.90;101040.00;;;;5068470;28;20047;-78
2021/10/16 12:06:16;;;;;;;18.77;2.17;;;;;16.90;101046.00;;;;5068215;28;20408;-80
2021/10/16 12:08:47;;;;;;;5.65;1.40;;;;;17.20;101055.00;;;;5068151;28;20079;-78
2021/10/16 12:11:17;;;;;;;5.38;1.27;;;;;17.40;101062.00;;;;5067960;28;20090;-81
2021/10/16 12:14:00;;;;;;;5.85;1.17;;;;;17.60;101059.00;;;;5066652;28;20048;-80
2021/10/16 12:16:49;;;;;;;4.28;1.00;;;;;17.70;101037.00;;;;5068336;28;20146;-78
2021/10/16 12:19:20;;;;;;;6.07;1.27;;;;;17.60;101057.00;;;;5067984;28;20051;-83
2021/10/16 12:21:52;;;;;;;4.57;0.88;;;;;17.50;101042.00;;;;5068357;28;20045;-80
2021/10/16 12:24:24;;;;;;;4.32;1.23;;;;;17.40;101044.00;;;;5068158;28;20590;-83
2021/10/16 12:27:08;;;;;;;4.30;1.10;;;;;17.60;101059.00;;;;5068302;28;20055;-78
2021/10/16 12:29:44;;;;;;;5.45;1.42;;;;;17.90;101046.00;;;;5068035;28;20533;-78
2021/10/16 12:32:17;;;;;;;7.45;1.50;;;;;18.30;101044.00;;;;5067058;28;20047;-79
2021/10/16 12:34:52;;;;;;;4.05;1.00;;;;;18.20;101057.00;;;;5067718;28;20048;-80
2021/10/16 12:37:22;;;;;;;3.65;0.88;;;;;17.90;101049.00;;;;5067475;28;20131;-78
2021/10/16 12:39:51;;;;;;;2.08;0.80;;;;;17.90;101063.00;;;;5067597;28;20495;-80